sensor_id;sensor_type;location;lat;lon;timestamp;temperature;humidity
65034;DHT22;51601;51.356;12.458;2023-02-15T00:03:54;1.20;99.90
65034;DHT22;51601;51.356;12.458;2023-02-15T00:08:18;1.20;99.90
65034;DHT22;51601;51.356;12.458;2023-02-15T00:12:42;1.20;99.90
65034;DHT22;51601;51.356;12.458;2023-02-15T00:17:07;1.20;99.90
65034;DHT22;51601;51.356;12.458;2023-02-15T00:21:34;1.20;99.90
65034;DHT22;51601;51.356;12.458;2023-02-15T00:26:06;1.20;99.90
65034;DHT22;51601;51.356;12.458;2023-02-15T00:30:31;1.10;99.90
65034;DHT22;51601;51.356;12.458;2023-02-15T00:34:56;1.10;99.90
65034;DHT22;51601;51.356;12.458;2023-02-15T00:39:21;1.10;99.90
65034;DHT22;51601;51.356;12.458;2023-02-15T00:43:46;1.00;99.90
65034;DHT22;51601;51.356;12.458;2023-02-15T00:48:10;0.90;99.90
65034;DHT22;51601;51.356;12.458;2023-02-15T00:52:34;0.90;99.90
65034;DHT22;51601;51.356;12.458;2023-02-15T00:56:59;0.80;99.90
65034;DHT22;51601;51.356;12.458;2023-02-15T01:01:24;0.80;99.90
65034;DHT22;51601;51.356;12.458;2023-02-15T01:05:49;0.70;99.90
65034;DHT22;51601;51.356;12.458;2023-02-15T01:10:13;0.70;99.90
65034;DHT22;51601;51.356;12.458;2023-02-15T01:14:39;0.60;99.90
65034;DHT22;51601;51.356;12.458;2023-02-15T01:19:03;0.60;99.90
65034;DHT22;51601;51.356;12.458;2023-02-15T01:23:28;0.70;99.90
65034;DHT22;51601;51.356;12.458;2023-02-15T01:27:52;0.70;99.90
65034;DHT22;51601;51.356;12.458;2023-02-15T01:32:17;0.70;99.90
65034;DHT22;51601;51.356;12.458;2023-02-15T01:36:42;0.70;99.90
65034;DHT22;51601;51.356;12.458;2023-02-15T01:41:06;0.70;99.90
65034;DHT22;51601;51.356;12.458;2023-02-15T01:45:47;0.60;99.90
65034;DHT22;51601;51.356;12.458;2023-02-15T01:50:16;0.60;99.90
65034;DHT22;51601;51.356;12.458;2023-02-15T01:54:45;0.60;99.90
65034;DHT22;51601;51.356;12.458;2023-02-15T01:59:12;0.60;99.90
65034;DHT22;51601;51.356;12.458;2023-02-15T02:03:43;0.60;99.90
65034;DHT22;51601;51.356;12.458;2023-02-15T02:08:39;0.50;99.90
65034;DHT22;51601;51.356;12.458;2023-02-15T02:13:31;0.50;99.90
65034;DHT22;51601;51.356;12.458;2023-02-15T02:18:35;0.40;99.90
65034;DHT22;51601;51.356;12.458;2023-02-15T02:24:11;0.40;99.90
65034;DHT22;51601;51.356;12.458;2023-02-15T02:29:27;0.40;99.90
65034;DHT22;51601;51.356;12.458;2023-02-15T02:34:28;0.30;99.90
65034;DHT22;51601;51.356;12.458;2023-02-15T02:39:26;0.20;99.90
65034;DHT22;51601;51.356;12.458;2023-02-15T02:44:26;0.10;99.90
65034;DHT22;51601;51.356;12.458;2023-02-15T02:49:30;0.20;99.90
65034;DHT22;51601;51.356;12.458;2023-02-15T02:54:22;0.20;99.90
65034;DHT22;51601;51.356;12.458;2023-02-15T02:59:17;0.20;99.90
65034;DHT22;51601;51.356;12.458;2023-02-15T03:04:11;0.10;99.90
65034;DHT22;51601;51.356;12.458;2023-02-15T03:09:11;0.20;99.90
65034;DHT22;51601;51.356;12.458;2023-02-15T03:14:05;0.30;99.90
65034;DHT22;51601;51.356;12.458;2023-02-15T03:19:00;0.30;99.90
65034;DHT22;51601;51.356;12.458;2023-02-15T03:23:58;0.40;99.90
65034;DHT22;51601;51.356;12.458;2023-02-15T03:28:56;0.40;99.90
65034;DHT22;51601;51.356;12.458;2023-02-15T03:33:53;0.50;99.90
65034;DHT22;51601;51.356;12.458;2023-02-15T03:38:50;0.50;99.90
65034;DHT22;51601;51.356;12.458;2023-02-15T03:43:47;0.50;99.90
65034;DHT22;51601;51.356;12.458;2023-02-15T03:48:45;0.60;99.90
65034;DHT22;51601;51.356;12.458;2023-02-15T03:53:41;0.70;99.90
65034;DHT22;51601;51.356;12.458;2023-02-15T03:58:33;0.70;99.90
65034;DHT22;51601;51.356;12.458;2023-02-15T04:03:46;0.70;99.90
65034;DHT22;51601;51.356;12.458;2023-02-15T04:08:39;0.70;99.90
65034;DHT22;51601;51.356;12.458;2023-02-15T04:13:47;0.70;99.90
65034;DHT22;51601;51.356;12.458;2023-02-15T04:18:47;0.70;99.90
65034;DHT22;51601;51.356;12.458;2023-02-15T04:23:56;0.70;99.90
65034;DHT22;51601;51.356;12.458;2023-02-15T04:29:05;0.70;99.90
65034;DHT22;51601;51.356;12.458;2023-02-15T04:33:57;0.60;99.90
65034;DHT22;51601;51.356;12.458;2023-02-15T04:38:48;0.60;99.90
65034;DHT22;51601;51.356;12.458;2023-02-15T04:43:39;0.60;99.90
65034;DHT22;51601;51.356;12.458;2023-02-15T04:48:30;0.60;99.90
65034;DHT22;51601;51.356;12.458;2023-02-15T04:53:22;0.60;99.90
65034;DHT22;51601;51.356;12.458;2023-02-15T04:58:14;0.50;99.90
65034;DHT22;51601;51.356;12.458;2023-02-15T05:03:04;0.50;99.90
65034;DHT22;51601;51.356;12.458;2023-02-15T05:07:56;0.50;99.90
65034;DHT22;51601;51.356;12.458;2023-02-15T05:12:49;0.40;99.90
65034;DHT22;51601;51.356;12.458;2023-02-15T05:17:40;0.50;99.90
65034;DHT22;51601;51.356;12.458;2023-02-15T05:22:31;0.40;99.90
65034;DHT22;51601;51.356;12.458;2023-02-15T05:27:22;0.40;99.90
65034;DHT22;51601;51.356;12.458;2023-02-15T05:32:32;0.40;99.90
65034;DHT22;51601;51.356;12.458;2023-02-15T05:37:23;0.40;99.90
65034;DHT22;51601;51.356;12.458;2023-02-15T05:42:14;0.30;99.90
65034;DHT22;51601;51.356;12.458;2023-02-15T05:47:05;0.40;99.90
65034;DHT22;51601;51.356;12.458;2023-02-15T05:51:58;0.30;99.90
65034;DHT22;51601;51.356;12.458;2023-02-15T05:56:49;0.20;99.90
65034;DHT22;51601;51.356;12.458;2023-02-15T06:01:41;0.10;99.90
65034;DHT22;51601;51.356;12.458;2023-02-15T06:06:32;0.00;99.90
65034;DHT22;51601;51.356;12.458;2023-02-15T06:11:25;0.00;99.90
65034;DHT22;51601;51.356;12.458;2023-02-15T06:16:16;0.10;99.90
65034;DHT22;51601;51.356;12.458;2023-02-15T06:21:07;0.10;99.90
65034;DHT22;51601;51.356;12.458;2023-02-15T06:25:58;0.20;99.90
65034;DHT22;51601;51.356;12.458;2023-02-15T06:30:52;0.20;99.90
65034;DHT22;51601;51.356;12.458;2023-02-15T06:35:44;0.30;99.90
65034;DHT22;51601;51.356;12.458;2023-02-15T06:40:35;0.30;99.90
65034;DHT22;51601;51.356;12.458;2023-02-15T06:45:26;0.30;99.90
65034;DHT22;51601;51.356;12.458;2023-02-15T06:50:18;0.30;99.90
65034;DHT22;51601;51.356;12.458;2023-02-15T06:55:10;0.30;99.90
65034;DHT22;51601;51.356;12.458;2023-02-15T07:00:01;0.30;99.90
65034;DHT22;51601;51.356;12.458;2023-02-15T07:04:54;0.20;99.90
65034;DHT22;51601;51.356;12.458;2023-02-15T07:09:47;0.30;99.90
65034;DHT22;51601;51.356;12.458;2023-02-15T07:14:38;0.30;99.90
65034;DHT22;51601;51.356;12.458;2023-02-15T07:19:30;0.30;99.90
65034;DHT22;51601;51.356;12.458;2023-02-15T07:24:21;0.40;99.90
65034;DHT22;51601;51.356;12.458;2023-02-15T07:29:16;0.40;99.90
65034;DHT22;51601;51.356;12.458;2023-02-15T07:34:09;0.50;99.90
65034;DHT22;51601;51.356;12.458;2023-02-15T07:39:00;0.60;99.90
65034;DHT22;51601;51.356;12.458;2023-02-15T07:43:52;0.70;99.90
65034;DHT22;51601;51.356;12.458;2023-02-15T07:48:45;0.80;99.90
65034;DHT22;51601;51.356;12.458;2023-02-15T07:53:36;0.90;99.90
65034;DHT22;51601;51.356;12.458;2023-02-15T07:58:27;2.00;99.90
65034;DHT22;51601;51.356;12.458;2023-02-15T08:03:31;4.10;99.90
65034;DHT22;51601;51.356;12.458;2023-02-15T08:08:24;6.50;99.90
65034;DHT22;51601;51.356;12.458;2023-02-15T08:13:21;8.30;99.90
65034;DHT22;51601;51.356;12.458;2023-02-15T08:18:12;9.60;99.90
65034;DHT22;51601;51.356;12.458;2023-02-15T08:23:04;10.50;99.90
65034;DHT22;51601;51.356;12.458;2023-02-15T08:27:56;11.20;99.40
65034;DHT22;51601;51.356;12.458;2023-02-15T08:32:47;11.80;92.30
65034;DHT22;51601;51.356;12.458;2023-02-15T08:37:38;12.50;79.30
65034;DHT22;51601;51.356;12.458;2023-02-15T08:42:29;13.10;74.60
65034;DHT22;51601;51.356;12.458;2023-02-15T08:47:24;14.00;75.20
65034;DHT22;51601;51.356;12.458;2023-02-15T08:52:15;14.90;70.10
65034;DHT22;51601;51.356;12.458;2023-02-15T08:57:06;15.50;67.50
65034;DHT22;51601;51.356;12.458;2023-02-15T09:01:57;16.10;64.90
65034;DHT22;51601;51.356;12.458;2023-02-15T09:06:50;16.50;60.50
65034;DHT22;51601;51.356;12.458;2023-02-15T09:11:43;16.70;60.10
65034;DHT22;51601;51.356;12.458;2023-02-15T09:16:38;16.90;55.60
65034;DHT22;51601;51.356;12.458;2023-02-15T09:21:31;16.90;54.50
65034;DHT22;51601;51.356;12.458;2023-02-15T09:26:24;16.80;54.50
65034;DHT22;51601;51.356;12.458;2023-02-15T09:31:17;16.60;54.70
65034;DHT22;51601;51.356;12.458;2023-02-15T09:36:16;16.50;55.60
65034;DHT22;51601;51.356;12.458;2023-02-15T09:41:19;16.20;53.00
65034;DHT22;51601;51.356;12.458;2023-02-15T09:46:27;15.60;54.80
65034;DHT22;51601;51.356;12.458;2023-02-15T09:51:52;15.20;53.10
65034;DHT22;51601;51.356;12.458;2023-02-15T09:56:51;14.70;54.10
65034;DHT22;51601;51.356;12.458;2023-02-15T10:01:53;14.40;56.30
65034;DHT22;51601;51.356;12.458;2023-02-15T10:06:55;14.30;56.80
65034;DHT22;51601;51.356;12.458;2023-02-15T10:12:01;14.30;57.40
65034;DHT22;51601;51.356;12.458;2023-02-15T10:17:08;14.30;56.70
65034;DHT22;51601;51.356;12.458;2023-02-15T10:22:08;14.30;56.30
65034;DHT22;51601;51.356;12.458;2023-02-15T10:27:07;14.30;55.70
65034;DHT22;51601;51.356;12.458;2023-02-15T10:32:09;14.30;55.00
65034;DHT22;51601;51.356;12.458;2023-02-15T10:42:46;14.30;53.80
65034;DHT22;51601;51.356;12.458;2023-02-15T10:47:52;14.20;53.00
65034;DHT22;51601;51.356;12.458;2023-02-15T10:52:54;14.30;53.80
65034;DHT22;51601;51.356;12.458;2023-02-15T10:57:56;14.40;53.90
65034;DHT22;51601;51.356;12.458;2023-02-15T11:03:04;14.70;54.00
65034;DHT22;51601;51.356;12.458;2023-02-15T11:07:58;14.90;53.00
65034;DHT22;51601;51.356;12.458;2023-02-15T11:12:51;15.00;52.30
65034;DHT22;51601;51.356;12.458;2023-02-15T11:17:45;15.20;52.10
65034;DHT22;51601;51.356;12.458;2023-02-15T11:22:40;15.50;52.30
65034;DHT22;51601;51.356;12.458;2023-02-15T11:27:31;15.90;51.40
65034;DHT22;51601;51.356;12.458;2023-02-15T11:32:28;16.10;50.00
65034;DHT22;51601;51.356;12.458;2023-02-15T11:37:21;16.30;50.30
65034;DHT22;51601;51.356;12.458;2023-02-15T11:42:19;16.50;49.60
65034;DHT22;51601;51.356;12.458;2023-02-15T11:47:13;16.50;48.90
65034;DHT22;51601;51.356;12.458;2023-02-15T11:52:07;16.50;48.20
65034;DHT22;51601;51.356;12.458;2023-02-15T11:57:01;16.40;48.00
65034;DHT22;51601;51.356;12.458;2023-02-15T12:01:55;16.10;47.40
65034;DHT22;51601;51.356;12.458;2023-02-15T12:06:51;15.80;47.50
65034;DHT22;51601;51.356;12.458;2023-02-15T12:11:51;15.40;48.20
65034;DHT22;51601;51.356;12.458;2023-02-15T12:16:44;15.20;48.90
65034;DHT22;51601;51.356;12.458;2023-02-15T12:21:41;15.00;49.40
65034;DHT22;51601;51.356;12.458;2023-02-15T12:26:34;14.90;49.30
65034;DHT22;51601;51.356;12.458;2023-02-15T13:40:13;11.10;56.10
65034;DHT22;51601;51.356;12.458;2023-02-15T13:44:47;11.00;56.20
65034;DHT22;51601;51.356;12.458;2023-02-15T13:49:17;11.10;56.10
65034;DHT22;51601;51.356;12.458;2023-02-15T13:53:52;11.10;56.60
65034;DHT22;51601;51.356;12.458;2023-02-15T14:03:40;11.10;57.10
65034;DHT22;51601;51.356;12.458;2023-02-15T14:08:11;11.10;57.10
65034;DHT22;51601;51.356;12.458;2023-02-15T14:12:41;11.20;56.60
65034;DHT22;51601;51.356;12.458;2023-02-15T14:17:11;11.10;56.40
65034;DHT22;51601;51.356;12.458;2023-02-15T14:21:35;11.20;56.10
65034;DHT22;51601;51.356;12.458;2023-02-15T14:25:59;11.20;56.00
65034;DHT22;51601;51.356;12.458;2023-02-15T14:30:22;11.20;56.10
65034;DHT22;51601;51.356;12.458;2023-02-15T14:34:46;11.20;55.90
65034;DHT22;51601;51.356;12.458;2023-02-15T14:39:22;11.20;56.10
65034;DHT22;51601;51.356;12.458;2023-02-15T14:44:04;11.20;55.90
65034;DHT22;51601;51.356;12.458;2023-02-15T14:48:31;11.20;56.00
65034;DHT22;51601;51.356;12.458;2023-02-15T14:53:14;11.20;56.30
65034;DHT22;51601;51.356;12.458;2023-02-15T14:57:37;11.20;56.40
65034;DHT22;51601;51.356;12.458;2023-02-15T15:01:57;11.20;56.40
65034;DHT22;51601;51.356;12.458;2023-02-15T15:06:26;11.20;56.50
65034;DHT22;51601;51.356;12.458;2023-02-15T15:10:51;11.10;56.30
65034;DHT22;51601;51.356;12.458;2023-02-15T15:15:34;11.10;56.30
65034;DHT22;51601;51.356;12.458;2023-02-15T15:20:43;11.10;56.20
65034;DHT22;51601;51.356;12.458;2023-02-15T15:25:41;11.00;56.40
65034;DHT22;51601;51.356;12.458;2023-02-15T15:35:17;10.90;56.50
65034;DHT22;51601;51.356;12.458;2023-02-15T15:40:24;10.80;56.50
65034;DHT22;51601;51.356;12.458;2023-02-15T15:45:39;10.70;56.80
65034;DHT22;51601;51.356;12.458;2023-02-15T15:50:14;10.60;57.30
65034;DHT22;51601;51.356;12.458;2023-02-15T15:54:40;10.60;57.20
65034;DHT22;51601;51.356;12.458;2023-02-15T15:59:07;10.50;57.30
65034;DHT22;51601;51.356;12.458;2023-02-15T16:03:37;10.40;57.50
65034;DHT22;51601;51.356;12.458;2023-02-15T16:08:05;10.40;58.60
65034;DHT22;51601;51.356;12.458;2023-02-15T16:12:31;10.30;58.20
65034;DHT22;51601;51.356;12.458;2023-02-15T16:16:59;10.20;58.60
65034;DHT22;51601;51.356;12.458;2023-02-15T16:21:27;10.10;59.00
65034;DHT22;51601;51.356;12.458;2023-02-15T16:26:00;10.00;59.30
65034;DHT22;51601;51.356;12.458;2023-02-15T16:30:29;9.90;59.60
65034;DHT22;51601;51.356;12.458;2023-02-15T16:34:55;9.80;59.90
65034;DHT22;51601;51.356;12.458;2023-02-15T16:39:20;9.70;60.20
65034;DHT22;51601;51.356;12.458;2023-02-15T16:43:49;9.60;60.50
65034;DHT22;51601;51.356;12.458;2023-02-15T16:48:19;9.50;60.70
65034;DHT22;51601;51.356;12.458;2023-02-15T16:52:45;9.30;61.20
65034;DHT22;51601;51.356;12.458;2023-02-15T16:57:17;9.20;61.70
65034;DHT22;51601;51.356;12.458;2023-02-15T17:01:44;9.10;61.80
65034;DHT22;51601;51.356;12.458;2023-02-15T17:06:20;8.90;62.10
65034;DHT22;51601;51.356;12.458;2023-02-15T17:10:46;8.70;62.40
65034;DHT22;51601;51.356;12.458;2023-02-15T17:15:27;8.50;62.90
65034;DHT22;51601;51.356;12.458;2023-02-15T17:19:54;8.30;63.30
65034;DHT22;51601;51.356;12.458;2023-02-15T17:24:34;8.20;64.40
65034;DHT22;51601;51.356;12.458;2023-02-15T17:28:57;8.10;65.10
65034;DHT22;51601;51.356;12.458;2023-02-15T17:33:21;8.00;65.40
65034;DHT22;51601;51.356;12.458;2023-02-15T17:37:50;7.90;65.60
65034;DHT22;51601;51.356;12.458;2023-02-15T17:42:14;7.80;65.90
65034;DHT22;51601;51.356;12.458;2023-02-15T17:46:39;7.70;67.10
65034;DHT22;51601;51.356;12.458;2023-02-15T17:51:05;7.60;67.80
65034;DHT22;51601;51.356;12.458;2023-02-15T17:55:35;7.60;68.20
65034;DHT22;51601;51.356;12.458;2023-02-15T18:00:01;7.50;68.40
65034;DHT22;51601;51.356;12.458;2023-02-15T18:04:42;7.40;68.60
65034;DHT22;51601;51.356;12.458;2023-02-15T18:09:25;7.30;69.00
65034;DHT22;51601;51.356;12.458;2023-02-15T18:14:09;7.20;69.30
65034;DHT22;51601;51.356;12.458;2023-02-15T18:18:34;7.10;69.80
65034;DHT22;51601;51.356;12.458;2023-02-15T18:22:58;7.00;70.10
65034;DHT22;51601;51.356;12.458;2023-02-15T18:27:23;6.90;70.70
65034;DHT22;51601;51.356;12.458;2023-02-15T18:31:52;6.90;71.80
65034;DHT22;51601;51.356;12.458;2023-02-15T18:36:20;6.90;72.50
65034;DHT22;51601;51.356;12.458;2023-02-15T18:40:46;6.90;73.10
65034;DHT22;51601;51.356;12.458;2023-02-15T18:45:15;6.90;73.10
65034;DHT22;51601;51.356;12.458;2023-02-15T18:49:40;6.80;73.90
65034;DHT22;51601;51.356;12.458;2023-02-15T18:54:05;6.80;74.60
65034;DHT22;51601;51.356;12.458;2023-02-15T18:58:37;6.80;75.10
65034;DHT22;51601;51.356;12.458;2023-02-15T19:03:02;6.70;75.60
65034;DHT22;51601;51.356;12.458;2023-02-15T19:07:35;6.70;76.30
65034;DHT22;51601;51.356;12.458;2023-02-15T19:11:54;6.70;77.10
65034;DHT22;51601;51.356;12.458;2023-02-15T19:16:27;6.70;77.40
65034;DHT22;51601;51.356;12.458;2023-02-15T19:20:52;6.60;77.80
65034;DHT22;51601;51.356;12.458;2023-02-15T19:25:21;6.50;77.80
65034;DHT22;51601;51.356;12.458;2023-02-15T19:29:47;6.40;78.30
65034;DHT22;51601;51.356;12.458;2023-02-15T19:34:14;6.30;78.60
65034;DHT22;51601;51.356;12.458;2023-02-15T19:38:41;6.20;79.10
65034;DHT22;51601;51.356;12.458;2023-02-15T19:43:15;6.10;79.40
65034;DHT22;51601;51.356;12.458;2023-02-15T19:47:39;6.00;79.90
65034;DHT22;51601;51.356;12.458;2023-02-15T19:52:05;5.80;80.30
65034;DHT22;51601;51.356;12.458;2023-02-15T19:56:37;5.80;81.20
65034;DHT22;51601;51.356;12.458;2023-02-15T20:01:03;5.70;82.10
65034;DHT22;51601;51.356;12.458;2023-02-15T20:05:30;5.60;82.40
65034;DHT22;51601;51.356;12.458;2023-02-15T20:09:56;5.60;82.80
65034;DHT22;51601;51.356;12.458;2023-02-15T20:14:21;5.50;83.00
65034;DHT22;51601;51.356;12.458;2023-02-15T20:18:47;5.50;82.70
65034;DHT22;51601;51.356;12.458;2023-02-15T20:23:17;5.40;82.40
65034;DHT22;51601;51.356;12.458;2023-02-15T20:27:43;5.30;82.50
65034;DHT22;51601;51.356;12.458;2023-02-15T20:32:08;5.30;82.30
65034;DHT22;51601;51.356;12.458;2023-02-15T20:36:34;5.30;81.80
65034;DHT22;51601;51.356;12.458;2023-02-15T20:40:59;5.30;81.30
65034;DHT22;51601;51.356;12.458;2023-02-15T20:45:41;5.40;80.70
65034;DHT22;51601;51.356;12.458;2023-02-15T20:50:06;5.30;80.30
65034;DHT22;51601;51.356;12.458;2023-02-15T20:54:33;5.20;80.00
65034;DHT22;51601;51.356;12.458;2023-02-15T20:58:58;5.10;79.90
65034;DHT22;51601;51.356;12.458;2023-02-15T21:03:25;5.10;79.90
65034;DHT22;51601;51.356;12.458;2023-02-15T21:07:53;5.10;80.60
65034;DHT22;51601;51.356;12.458;2023-02-15T21:12:19;5.10;79.80
65034;DHT22;51601;51.356;12.458;2023-02-15T21:16:46;5.10;79.80
65034;DHT22;51601;51.356;12.458;2023-02-15T21:21:17;5.00;79.60
65034;DHT22;51601;51.356;12.458;2023-02-15T21:25:45;5.00;79.50
65034;DHT22;51601;51.356;12.458;2023-02-15T21:30:19;5.00;79.60
65034;DHT22;51601;51.356;12.458;2023-02-15T21:34:46;4.90;79.60
65034;DHT22;51601;51.356;12.458;2023-02-15T21:39:14;4.90;79.90
65034;DHT22;51601;51.356;12.458;2023-02-15T21:43:40;4.80;80.00
65034;DHT22;51601;51.356;12.458;2023-02-15T21:48:24;4.80;80.10
65034;DHT22;51601;51.356;12.458;2023-02-15T21:52:48;4.70;80.20
65034;DHT22;51601;51.356;12.458;2023-02-15T21:57:13;4.60;80.30
65034;DHT22;51601;51.356;12.458;2023-02-15T22:01:39;4.60;80.60
65034;DHT22;51601;51.356;12.458;2023-02-15T22:06:05;4.50;80.80
65034;DHT22;51601;51.356;12.458;2023-02-15T22:10:31;4.40;81.10
65034;DHT22;51601;51.356;12.458;2023-02-15T22:14:57;4.40;81.30
65034;DHT22;51601;51.356;12.458;2023-02-15T22:19:21;4.40;81.60
65034;DHT22;51601;51.356;12.458;2023-02-15T22:23:46;4.30;81.80
65034;DHT22;51601;51.356;12.458;2023-02-15T22:28:12;4.20;81.50
65034;DHT22;51601;51.356;12.458;2023-02-15T22:32:38;4.10;81.60
65034;DHT22;51601;51.356;12.458;2023-02-15T22:37:05;4.00;82.00
65034;DHT22;51601;51.356;12.458;2023-02-15T22:41:30;4.00;82.70
65034;DHT22;51601;51.356;12.458;2023-02-15T22:45:58;4.00;83.10
65034;DHT22;51601;51.356;12.458;2023-02-15T22:50:24;4.00;83.00
65034;DHT22;51601;51.356;12.458;2023-02-15T22:54:49;3.90;83.10
65034;DHT22;51601;51.356;12.458;2023-02-15T22:59:19;3.90;83.90
65034;DHT22;51601;51.356;12.458;2023-02-15T23:03:46;3.90;84.10
65034;DHT22;51601;51.356;12.458;2023-02-15T23:08:10;3.90;84.30
65034;DHT22;51601;51.356;12.458;2023-02-15T23:12:35;3.90;84.50
65034;DHT22;51601;51.356;12.458;2023-02-15T23:17:24;3.90;84.10
65034;DHT22;51601;51.356;12.458;2023-02-15T23:21:48;3.70;84.20
65034;DHT22;51601;51.356;12.458;2023-02-15T23:26:16;3.70;84.20
65034;DHT22;51601;51.356;12.458;2023-02-15T23:30:40;3.60;84.50
65034;DHT22;51601;51.356;12.458;2023-02-15T23:35:12;3.60;85.90
65034;DHT22;51601;51.356;12.458;2023-02-15T23:39:36;3.60;85.60
65034;DHT22;51601;51.356;12.458;2023-02-15T23:44:18;3.50;85.80
65034;DHT22;51601;51.356;12.458;2023-02-15T23:48:43;3.50;85.80
65034;DHT22;51601;51.356;12.458;2023-02-15T23:53:09;3.50;85.90
65034;DHT22;51601;51.356;12.458;2023-02-15T23:57:34;3.40;85.60
